createdAt,value
2023-09-13T00:00:24.673Z,20.67
2023-09-13T00:02:52.378Z,22.83
2023-09-13T00:05:20.431Z,21.37
2023-09-13T00:07:48.386Z,23.43
2023-09-13T00:10:17.557Z,22.90
2023-09-13T00:12:45.263Z,23.33
2023-09-13T00:15:12.887Z,23.33
2023-09-13T00:17:40.636Z,25.13
2023-09-13T00:20:09.489Z,25.57
2023-09-13T00:22:37.375Z,24.37
2023-09-13T00:25:05.748Z,23.80
2023-09-13T00:27:34.798Z,24.90
2023-09-13T00:30:02.420Z,24.30
2023-09-13T00:32:30.095Z,24.47
2023-09-13T00:34:57.673Z,24.00
2023-09-13T00:37:25.292Z,23.20
2023-09-13T00:39:53.095Z,23.63
2023-09-13T00:42:20.718Z,22.60
2023-09-13T00:44:49.645Z,23.90
2023-09-13T00:47:17.774Z,21.20
2023-09-13T00:49:48.411Z,22.40
2023-09-13T00:52:16.380Z,23.17
2023-09-13T00:54:44.356Z,22.60
2023-09-13T00:57:13.296Z,22.57
2023-09-13T00:59:41.453Z,22.10
2023-09-13T01:02:10.554Z,22.53
2023-09-13T01:04:40.402Z,21.63
2023-09-13T01:07:10.093Z,22.67
2023-09-13T01:09:38.369Z,23.27
2023-09-13T01:12:07.262Z,24.03
2023-09-13T01:14:35.527Z,24.23
2023-09-13T01:17:10.734Z,22.93
2023-09-13T01:19:51.516Z,23.60
2023-09-13T01:22:52.529Z,22.47
2023-09-13T01:25:52.021Z,21.60
2023-09-13T01:28:34.400Z,21.50
2023-09-13T01:31:04.403Z,21.33
2023-09-13T01:33:32.156Z,22.40
2023-09-13T01:35:59.834Z,22.13
2023-09-13T01:38:27.697Z,20.57
2023-09-13T01:41:02.181Z,21.50
2023-09-13T01:43:31.867Z,21.00
2023-09-13T01:46:00.382Z,19.03
2023-09-13T01:48:28.903Z,18.80
2023-09-13T01:50:59.008Z,20.20
2023-09-13T01:53:26.804Z,23.73
2023-09-13T01:55:54.404Z,23.47
2023-09-13T01:58:22.236Z,20.33
2023-09-13T02:00:51.371Z,21.83
2023-09-13T02:03:19.000Z,21.60
2023-09-13T02:05:47.845Z,19.70
2023-09-13T02:08:15.755Z,19.17
2023-09-13T02:10:43.323Z,18.30
2023-09-13T02:13:11.031Z,18.07
2023-09-13T02:15:41.155Z,19.33
2023-09-13T02:18:10.355Z,18.37
2023-09-13T02:20:38.028Z,17.17
2023-09-13T02:23:05.951Z,18.47
2023-09-13T02:25:37.577Z,19.20
2023-09-13T02:28:06.000Z,18.10
2023-09-13T02:30:36.010Z,20.23
2023-09-13T02:33:03.935Z,18.57
2023-09-13T02:35:33.659Z,21.03
2023-09-13T02:38:01.410Z,20.00
2023-09-13T02:40:29.013Z,19.10
2023-09-13T02:42:56.639Z,20.50
2023-09-13T02:45:24.238Z,20.57
2023-09-13T02:47:51.881Z,20.73
2023-09-13T02:50:19.656Z,21.27
2023-09-13T02:52:48.594Z,20.40
2023-09-13T02:55:16.523Z,22.00
2023-09-13T02:57:44.294Z,19.27
2023-09-13T03:00:13.152Z,20.93
2023-09-13T03:02:40.829Z,18.70
2023-09-13T03:05:09.054Z,19.50
2023-09-13T03:07:36.677Z,23.27
2023-09-13T03:10:06.308Z,18.53
2023-09-13T03:12:34.794Z,20.43
2023-09-13T03:15:02.415Z,19.70
2023-09-13T03:17:30.955Z,19.97
2023-09-13T03:19:58.629Z,21.10
2023-09-13T03:22:26.448Z,21.70
2023-09-13T03:24:54.095Z,21.97
2023-09-13T03:27:23.121Z,22.83
2023-09-13T03:29:50.705Z,23.53
2023-09-13T03:32:18.355Z,26.73
2023-09-13T03:34:46.268Z,23.20
2023-09-13T03:37:14.041Z,21.30
2023-09-13T03:39:41.732Z,24.00
2023-09-13T03:42:09.333Z,21.17
2023-09-13T03:44:38.290Z,22.53
2023-09-13T03:47:06.328Z,22.47
2023-09-13T03:49:34.141Z,23.63
2023-09-13T03:52:02.563Z,23.33
2023-09-13T03:54:30.238Z,22.30
2023-09-13T03:56:58.941Z,23.37
2023-09-13T03:59:26.597Z,23.50
2023-09-13T04:01:58.398Z,23.90
2023-09-13T04:04:27.160Z,23.40
2023-09-13T04:06:54.899Z,24.17
2023-09-13T04:09:23.532Z,23.93
2023-09-13T04:11:51.860Z,25.83
2023-09-13T04:14:19.504Z,25.27
2023-09-13T04:16:47.798Z,23.63
2023-09-13T04:19:16.980Z,25.67
2023-09-13T04:21:44.771Z,25.53
2023-09-13T04:24:12.404Z,24.53
2023-09-13T04:26:40.089Z,26.07
2023-09-13T04:29:08.092Z,25.57
2023-09-13T04:31:35.847Z,24.30
2023-09-13T04:34:04.446Z,25.23
2023-09-13T04:36:33.590Z,25.77
2023-09-13T04:39:01.268Z,26.03
2023-09-13T04:41:28.917Z,25.27
2023-09-13T04:43:56.542Z,24.10
2023-09-13T04:46:24.268Z,24.63
2023-09-13T04:48:52.044Z,23.67
2023-09-13T04:51:19.808Z,24.30
2023-09-13T04:53:48.848Z,24.57
2023-09-13T04:56:16.469Z,25.50
2023-09-13T04:58:44.076Z,24.90
2023-09-13T05:01:11.805Z,24.77
2023-09-13T05:03:39.619Z,26.20
2023-09-13T05:06:09.335Z,24.67
2023-09-13T05:08:38.433Z,24.77
2023-09-13T05:11:07.414Z,22.90
2023-09-13T05:13:35.133Z,24.40
2023-09-13T05:16:03.735Z,23.60
2023-09-13T05:18:31.506Z,23.33
2023-09-13T05:20:59.125Z,22.70
2023-09-13T05:23:26.824Z,24.50
2023-09-13T05:25:56.722Z,24.90
2023-09-13T05:28:26.272Z,23.10
2023-09-13T05:30:54.363Z,23.90
2023-09-13T05:33:22.014Z,22.87
2023-09-13T05:35:49.776Z,23.37
2023-09-13T05:38:17.552Z,23.17
2023-09-13T05:40:45.240Z,24.00
2023-09-13T05:43:12.973Z,23.27
2023-09-13T05:45:43.123Z,23.03
2023-09-13T05:48:10.828Z,23.73
2023-09-13T05:50:38.513Z,23.87
2023-09-13T05:53:06.257Z,24.60
2023-09-13T05:55:34.056Z,24.37
2023-09-13T05:58:01.745Z,24.13
2023-09-13T06:00:29.476Z,23.37
2023-09-13T06:02:58.479Z,25.00
2023-09-13T06:05:26.367Z,24.47
2023-09-13T06:07:53.930Z,22.90
2023-09-13T06:10:21.578Z,24.10
2023-09-13T06:12:49.292Z,24.77
2023-09-13T06:15:16.976Z,23.73
2023-09-13T06:17:44.886Z,23.27
2023-09-13T06:20:14.206Z,24.50
2023-09-13T06:22:41.887Z,22.87
2023-09-13T06:25:11.164Z,23.90
2023-09-13T06:27:39.155Z,24.80
2023-09-13T06:30:08.194Z,22.93
2023-09-13T06:32:40.185Z,23.77
2023-09-13T06:35:15.033Z,23.90
2023-09-13T06:37:47.176Z,23.77
2023-09-13T06:40:16.716Z,23.37
2023-09-13T06:42:59.440Z,23.43
2023-09-13T06:45:30.778Z,22.83
2023-09-13T06:48:00.047Z,22.03
2023-09-13T06:55:35.209Z,21.67
2023-09-13T06:58:09.925Z,23.30
2023-09-13T07:00:48.698Z,23.93
2023-09-13T07:03:22.584Z,23.77
2023-09-13T07:05:51.665Z,23.87
2023-09-13T07:08:20.626Z,21.70
2023-09-13T07:10:48.259Z,22.40
2023-09-13T07:13:15.928Z,20.90
2023-09-13T07:15:43.713Z,22.33
2023-09-13T07:18:11.347Z,20.70
2023-09-13T07:20:38.962Z,22.07
2023-09-13T07:23:08.391Z,21.87
2023-09-13T07:25:37.633Z,21.50
2023-09-13T07:28:05.876Z,22.03
2023-09-13T07:30:33.648Z,22.20
2023-09-13T07:33:02.069Z,22.37
2023-09-13T07:35:29.737Z,21.37
2023-09-13T07:37:59.573Z,21.70
2023-09-13T07:40:27.572Z,20.90
2023-09-13T07:42:56.827Z,20.70
2023-09-13T07:45:24.459Z,20.27
2023-09-13T07:47:52.107Z,21.07
2023-09-13T07:50:29.396Z,20.90
2023-09-13T07:53:05.277Z,20.20
2023-09-13T07:55:34.054Z,20.17
2023-09-13T07:58:04.305Z,22.70
2023-09-13T08:00:32.465Z,19.27
2023-09-13T08:03:00.890Z,20.20
2023-09-13T08:05:29.034Z,20.20
2023-09-13T08:07:56.844Z,19.47
2023-09-13T08:10:25.606Z,22.37
2023-09-13T08:12:53.906Z,19.67
2023-09-13T08:15:30.731Z,20.00
2023-09-13T08:18:06.906Z,20.03
2023-09-13T08:20:34.576Z,18.40
2023-09-13T08:23:02.265Z,18.70
2023-09-13T08:25:29.964Z,19.00
2023-09-13T08:27:57.625Z,19.60
2023-09-13T08:30:26.758Z,18.67
2023-09-13T08:32:54.608Z,17.83
2023-09-13T08:35:22.327Z,16.73
2023-09-13T08:37:50.302Z,18.23
2023-09-13T08:40:18.139Z,17.33
2023-09-13T08:42:47.112Z,17.13
2023-09-13T08:45:15.397Z,18.23
2023-09-13T08:50:21.208Z,16.67
2023-09-13T08:52:49.841Z,15.53
2023-09-13T08:55:17.912Z,16.73
2023-09-13T08:57:48.174Z,17.33
2023-09-13T09:00:16.653Z,15.23
2023-09-13T09:02:48.503Z,15.07
2023-09-13T09:05:17.551Z,16.70
2023-09-13T09:07:47.540Z,15.77
2023-09-13T09:10:15.809Z,14.90
2023-09-13T09:12:46.879Z,16.07
2023-09-13T09:15:17.049Z,14.43
2023-09-13T09:17:50.881Z,13.80
2023-09-13T09:20:19.612Z,14.07
2023-09-13T09:22:47.528Z,14.00
2023-09-13T09:25:16.018Z,13.03
2023-09-13T09:27:45.133Z,14.37
2023-09-13T09:30:16.183Z,11.77
2023-09-13T09:32:47.193Z,12.37
2023-09-13T09:35:16.555Z,10.87
2023-09-13T09:37:45.585Z,11.57
2023-09-13T09:40:15.672Z,10.10
2023-09-13T09:42:43.734Z,10.97
2023-09-13T09:45:11.621Z,10.73
2023-09-13T09:47:40.938Z,8.43
2023-09-13T09:50:11.867Z,8.30
2023-09-13T09:52:40.309Z,7.87
2023-09-13T09:55:09.731Z,8.23
2023-09-13T09:57:37.432Z,6.60
2023-09-13T10:00:08.788Z,6.57
2023-09-13T10:02:36.670Z,6.80
2023-09-13T10:05:04.946Z,7.00
2023-09-13T10:07:42.284Z,6.20
2023-09-13T10:10:10.733Z,6.27
2023-09-13T10:12:45.871Z,6.53
2023-09-13T10:15:13.830Z,6.77
2023-09-13T10:17:43.049Z,8.80
2023-09-13T10:20:15.809Z,6.83
2023-09-13T10:22:48.118Z,7.37
2023-09-13T10:25:19.617Z,6.63
2023-09-13T10:27:51.536Z,6.43
2023-09-13T10:30:23.849Z,5.93
2023-09-13T10:32:58.913Z,6.73
2023-09-13T10:35:29.948Z,6.73
2023-09-13T10:38:05.936Z,7.53
2023-09-13T10:40:39.510Z,14.07
2023-09-13T10:43:09.437Z,7.30
2023-09-13T10:45:38.177Z,6.77
2023-09-13T10:48:07.411Z,7.37
2023-09-13T10:50:35.130Z,6.80
2023-09-13T10:53:04.611Z,7.63
2023-09-13T10:55:34.618Z,7.27
2023-09-13T10:58:04.039Z,9.57
2023-09-13T11:00:33.718Z,6.97
2023-09-13T11:03:02.730Z,7.13
2023-09-13T11:05:31.397Z,7.07
2023-09-13T11:07:59.264Z,6.57
2023-09-13T11:10:33.176Z,6.20
2023-09-13T11:13:13.451Z,7.27
2023-09-13T11:15:49.964Z,10.00
2023-09-13T11:18:18.352Z,7.20
2023-09-13T11:20:46.375Z,6.27
2023-09-13T11:26:01.757Z,5.43
2023-09-13T11:28:44.629Z,6.60
2023-09-13T11:31:14.921Z,5.57
2023-09-13T11:33:52.903Z,6.53
2023-09-13T11:36:21.560Z,5.70
2023-09-13T11:38:52.502Z,6.73
2023-09-13T11:41:21.864Z,7.07
2023-09-13T11:44:03.260Z,6.10
2023-09-13T11:46:32.570Z,6.73
2023-09-13T11:49:04.240Z,10.80
2023-09-13T11:54:16.066Z,7.60
2023-09-13T11:56:48.273Z,6.90
2023-09-13T11:59:19.033Z,6.83
2023-09-13T12:01:53.254Z,6.30
2023-09-13T12:06:59.433Z,5.57
2023-09-13T12:09:31.894Z,6.20
2023-09-13T12:12:07.499Z,5.93
2023-09-13T12:14:57.158Z,5.20
2023-09-13T12:17:38.666Z,5.50
2023-09-13T12:20:07.659Z,4.60
2023-09-13T12:22:40.276Z,4.27
2023-09-13T12:25:11.834Z,4.30
2023-09-13T12:27:41.342Z,3.53
2023-09-13T12:30:16.924Z,4.20
2023-09-13T12:32:45.060Z,4.40
2023-09-13T12:35:14.134Z,4.30
2023-09-13T12:37:41.750Z,3.93
2023-09-13T12:40:15.627Z,4.07
2023-09-13T12:42:44.891Z,4.40
2023-09-13T12:45:13.663Z,3.83
2023-09-13T12:47:41.599Z,4.47
2023-09-13T12:50:18.158Z,3.73
2023-09-13T12:52:56.541Z,4.07
2023-09-13T12:55:26.182Z,6.47
2023-09-13T12:58:02.582Z,3.50
2023-09-13T13:00:30.288Z,4.47
2023-09-13T13:02:58.291Z,4.07
2023-09-13T13:05:28.508Z,4.53
2023-09-13T13:10:34.422Z,4.73
2023-09-13T13:13:03.838Z,5.43
2023-09-13T13:15:35.658Z,4.33
2023-09-13T13:18:13.669Z,4.47
2023-09-13T13:21:07.117Z,5.33
2023-09-13T13:23:37.219Z,5.13
2023-09-13T13:26:07.104Z,4.20
2023-09-13T13:28:57.128Z,6.10
2023-09-13T13:31:36.542Z,3.73
2023-09-13T13:34:06.961Z,4.20
2023-09-13T13:36:46.214Z,5.03
2023-09-13T13:39:26.441Z,4.00
2023-09-13T13:41:54.637Z,4.63
2023-09-13T13:44:39.969Z,4.63
2023-09-13T13:47:23.941Z,3.87
2023-09-13T13:49:52.545Z,6.50
2023-09-13T13:55:31.838Z,3.73
2023-09-13T13:58:00.415Z,5.00
2023-09-13T14:00:42.933Z,5.03
2023-09-13T14:03:33.841Z,4.27
2023-09-13T14:06:04.571Z,3.67
2023-09-13T14:08:33.449Z,4.20
2023-09-13T14:11:10.194Z,3.87
2023-09-13T14:13:59.925Z,4.23
2023-09-13T14:16:45.728Z,3.47
2023-09-13T14:19:18.285Z,3.60
2023-09-13T14:21:46.788Z,3.73
2023-09-13T14:27:00.550Z,4.43
2023-09-13T14:29:32.876Z,3.40
2023-09-13T14:32:04.630Z,3.40
2023-09-13T14:34:41.357Z,3.73
2023-09-13T14:37:22.407Z,3.60
2023-09-13T14:39:50.769Z,4.07
2023-09-13T14:42:30.221Z,3.27
2023-09-13T14:45:01.342Z,3.20
2023-09-13T14:47:35.262Z,3.93
2023-09-13T14:50:04.874Z,4.17
2023-09-13T14:52:44.895Z,4.13
2023-09-13T14:55:14.974Z,4.27
2023-09-13T14:57:43.424Z,3.30
2023-09-13T15:00:22.750Z,3.60
2023-09-13T15:02:53.875Z,3.27
2023-09-13T15:05:35.403Z,3.30
2023-09-13T15:08:09.733Z,7.97
2023-09-13T15:10:38.258Z,3.27
2023-09-13T15:13:06.322Z,6.13
2023-09-13T15:15:42.728Z,3.10
2023-09-13T15:18:15.300Z,3.53
2023-09-13T15:21:00.838Z,3.47
2023-09-13T15:23:28.927Z,2.93
2023-09-13T15:25:57.088Z,3.40
2023-09-13T15:28:28.417Z,3.27
2023-09-13T15:30:56.828Z,3.30
2023-09-13T15:33:27.039Z,4.90
2023-09-13T15:36:15.754Z,3.13
2023-09-13T15:38:58.775Z,3.37
2023-09-13T15:41:29.650Z,2.80
2023-09-13T15:43:58.073Z,2.67
2023-09-13T15:46:31.310Z,4.33
2023-09-13T15:49:01.201Z,4.33
2023-09-13T15:51:28.966Z,4.73
2023-09-13T15:53:56.657Z,3.50
2023-09-13T15:56:24.321Z,3.20
2023-09-13T15:58:51.889Z,3.07
2023-09-13T16:01:19.523Z,2.60
2023-09-13T16:03:47.231Z,3.50
2023-09-13T16:06:16.351Z,3.00
2023-09-13T16:08:44.336Z,4.93
2023-09-13T16:11:12.146Z,4.90
2023-09-13T16:13:39.771Z,5.67
2023-09-13T16:16:10.431Z,4.00
2023-09-13T16:18:38.079Z,5.63
2023-09-13T16:21:06.200Z,2.90
2023-09-13T16:23:35.152Z,3.20
2023-09-13T16:26:02.831Z,5.57
2023-09-13T16:28:30.490Z,3.20
2023-09-13T16:30:58.213Z,3.20
2023-09-13T16:33:26.229Z,2.80
2023-09-13T16:35:53.898Z,3.83
2023-09-13T16:38:21.843Z,2.93
2023-09-13T16:40:50.864Z,2.93
2023-09-13T16:43:18.500Z,3.03
2023-09-13T16:45:46.488Z,3.13
2023-09-13T16:48:28.027Z,2.97
2023-09-13T16:51:01.937Z,3.13
2023-09-13T16:53:29.617Z,5.43
2023-09-13T16:55:58.549Z,2.60
2023-09-13T16:58:26.265Z,5.20
2023-09-13T17:00:57.697Z,3.20
2023-09-13T17:03:25.747Z,2.93
2023-09-13T17:05:54.032Z,3.63
2023-09-13T17:08:21.759Z,4.33
2023-09-13T17:10:49.744Z,2.87
2023-09-13T17:13:22.518Z,3.93
2023-09-13T17:15:52.006Z,2.93
2023-09-13T17:18:20.095Z,4.17
2023-09-13T17:20:49.216Z,20.03
2023-09-13T17:23:17.163Z,3.63
2023-09-13T17:25:44.842Z,4.60
2023-09-13T17:28:12.459Z,3.37
2023-09-13T17:30:41.530Z,3.07
2023-09-13T17:33:09.304Z,5.00
2023-09-13T17:35:36.964Z,3.50
2023-09-13T17:38:05.453Z,4.00
2023-09-13T17:40:33.091Z,3.47
2023-09-13T17:43:01.342Z,4.10
2023-09-13T17:45:30.188Z,4.03
2023-09-13T17:47:59.348Z,3.97
2023-09-13T17:50:27.012Z,4.83
2023-09-13T17:52:54.606Z,4.10
2023-09-13T17:55:22.361Z,3.97
2023-09-13T17:57:51.396Z,4.70
2023-09-13T18:00:19.044Z,5.07
2023-09-13T18:02:46.853Z,4.33
2023-09-13T18:05:16.801Z,4.63
2023-09-13T18:07:44.541Z,5.50
2023-09-13T18:10:13.542Z,4.97
2023-09-13T18:12:41.294Z,6.17
2023-09-13T18:15:10.061Z,4.60
2023-09-13T18:17:54.386Z,4.77
2023-09-13T18:20:24.949Z,7.40
2023-09-13T18:22:52.596Z,4.53
2023-09-13T18:25:20.198Z,4.37
2023-09-13T18:27:47.891Z,4.70
2023-09-13T18:30:15.670Z,4.77
2023-09-13T18:32:43.345Z,5.73
2023-09-13T18:35:11.618Z,5.63
2023-09-13T18:37:40.596Z,6.80
2023-09-13T18:40:09.684Z,6.20
2023-09-13T18:42:37.392Z,7.73
2023-09-13T18:45:06.021Z,7.57
2023-09-13T18:47:33.679Z,7.77
2023-09-13T18:50:01.402Z,8.40
2023-09-13T18:52:29.347Z,8.57
2023-09-13T18:54:58.319Z,7.53
2023-09-13T18:57:31.098Z,8.63
2023-09-13T18:59:58.803Z,7.73
2023-09-13T19:02:26.553Z,7.90
2023-09-13T19:04:54.259Z,8.27
2023-09-13T19:07:21.967Z,8.90
2023-09-13T19:09:49.679Z,7.30
2023-09-13T19:12:18.747Z,7.73
2023-09-13T19:14:46.340Z,10.20
2023-09-13T19:17:13.994Z,8.13
2023-09-13T19:19:41.608Z,10.60
2023-09-13T19:22:09.284Z,8.53
2023-09-13T19:24:50.307Z,9.80
2023-09-13T19:27:25.675Z,9.40
2023-09-13T19:29:53.624Z,9.33
2023-09-13T19:32:21.696Z,9.57
2023-09-13T19:34:49.308Z,9.70
2023-09-13T19:37:16.937Z,9.57
2023-09-13T19:39:45.666Z,8.93
2023-09-13T19:42:13.329Z,9.27
2023-09-13T19:44:42.381Z,8.57
2023-09-13T19:47:10.051Z,9.07
2023-09-13T19:49:37.927Z,9.63
2023-09-13T19:52:06.148Z,10.60
2023-09-13T19:54:34.301Z,10.67
2023-09-13T19:57:02.279Z,8.97
2023-09-13T19:59:32.244Z,9.77
2023-09-13T20:02:01.262Z,10.13
2023-09-13T20:04:28.920Z,12.57
2023-09-13T20:06:56.550Z,12.20
2023-09-13T20:09:24.219Z,10.03
2023-09-13T20:12:02.194Z,9.67
2023-09-13T20:14:29.787Z,9.10
2023-09-13T20:16:57.509Z,9.37
2023-09-13T20:19:26.669Z,10.53
2023-09-13T20:21:54.293Z,10.00
2023-09-13T20:24:22.212Z,14.80
2023-09-13T20:26:50.647Z,8.70
2023-09-13T20:29:18.270Z,8.43
2023-09-13T20:31:45.881Z,9.73
2023-09-13T20:34:13.575Z,8.87
2023-09-13T20:36:42.604Z,8.60
2023-09-13T20:39:11.170Z,9.73
2023-09-13T20:41:39.887Z,12.10
2023-09-13T20:44:08.423Z,8.27
2023-09-13T20:46:36.057Z,7.90
2023-09-13T20:49:05.569Z,8.63
2023-09-13T20:51:33.393Z,8.87
2023-09-13T20:54:02.424Z,8.83
2023-09-13T20:56:30.055Z,8.40
2023-09-13T20:58:57.786Z,8.57
2023-09-13T21:01:25.614Z,7.70
2023-09-13T21:03:53.407Z,8.63
2023-09-13T21:06:21.141Z,7.90
2023-09-13T21:08:48.776Z,7.67
2023-09-13T21:11:17.725Z,8.30
2023-09-13T21:13:45.308Z,7.90
2023-09-13T21:16:13.700Z,8.87
2023-09-13T21:18:41.633Z,7.53
2023-09-13T21:21:09.290Z,7.83
2023-09-13T21:23:36.908Z,8.23
2023-09-13T21:26:04.501Z,8.00
2023-09-13T21:28:33.418Z,8.10
2023-09-13T21:31:01.195Z,7.53
2023-09-13T21:33:29.000Z,9.23
2023-09-13T21:36:00.625Z,8.20
2023-09-13T21:38:28.650Z,8.30
2023-09-13T21:40:56.616Z,8.30
2023-09-13T21:43:24.456Z,7.50
2023-09-13T21:45:53.591Z,8.40
2023-09-13T21:48:21.398Z,8.00
2023-09-13T21:50:49.222Z,8.27
2023-09-13T21:53:17.664Z,9.03
2023-09-13T21:55:45.411Z,7.83
2023-09-13T21:58:20.656Z,9.13
2023-09-13T22:00:48.939Z,8.70
2023-09-13T22:03:18.404Z,8.50
2023-09-13T22:05:46.196Z,8.60
2023-09-13T22:08:13.847Z,8.40
2023-09-13T22:10:43.741Z,8.43
2023-09-13T22:13:11.533Z,7.90
2023-09-13T22:15:39.232Z,8.40
2023-09-13T22:18:07.291Z,8.47
2023-09-13T22:20:37.727Z,8.83
2023-09-13T22:23:07.140Z,8.30
2023-09-13T22:25:34.810Z,8.40
2023-09-13T22:28:02.612Z,9.33
2023-09-13T22:30:30.374Z,9.00
2023-09-13T22:32:58.691Z,8.87
2023-09-13T22:35:26.451Z,8.60
2023-09-13T22:37:55.498Z,9.47
2023-09-13T22:40:23.220Z,9.83
2023-09-13T22:42:50.956Z,9.40
2023-09-13T22:45:18.683Z,9.83
2023-09-13T22:47:46.443Z,10.43
2023-09-13T22:50:14.678Z,10.77
2023-09-13T22:52:42.424Z,11.33
2023-09-13T22:55:11.785Z,10.50
2023-09-13T22:57:39.532Z,10.30
2023-09-13T23:00:08.876Z,10.30
2023-09-13T23:02:36.614Z,9.50
2023-09-13T23:05:04.748Z,10.40
2023-09-13T23:07:32.376Z,11.53
2023-09-13T23:10:00.040Z,11.47
2023-09-13T23:12:29.120Z,11.53
2023-09-13T23:14:56.889Z,12.53
2023-09-13T23:17:24.590Z,10.30
2023-09-13T23:19:52.248Z,10.57
2023-09-13T23:22:19.861Z,11.10
2023-09-13T23:24:47.546Z,13.60
2023-09-13T23:27:15.290Z,12.40
2023-09-13T23:29:44.249Z,10.67
2023-09-13T23:32:11.924Z,10.33
2023-09-13T23:34:41.283Z,9.87
2023-09-13T23:37:08.891Z,10.80
2023-09-13T23:39:36.472Z,10.97
2023-09-13T23:42:04.930Z,11.17
2023-09-13T23:44:32.646Z,9.83
2023-09-13T23:47:02.284Z,11.20
2023-09-13T23:49:29.975Z,11.60
2023-09-13T23:51:57.738Z,11.73
2023-09-13T23:54:25.395Z,11.13
2023-09-13T23:56:52.135Z,12.20
2023-09-13T23:59:20.069Z,12.53
